Fairbanks, AK (99775)

5:38 AM AKST on December 11, 2016 (GMT -0900)
Ballaine Road & Lynx Lane | | Change Station

Elev 829 ft 64.90 °N, 147.83 °W | Updated 2 minutes ago

Clear
Clear
-2.4 °F
Feels Like -2 °F
N
0.0
Wind Variable Wind from SW
Gusts 0.0 mph

Today
High -- | Low -- °F
--% Chance of Precip.
Yesterday
High -- | Low -- °F
Precip. -- in
Pressure 30.57 in
Visibility 10.0 miles
Clouds Few 300 ft
Windchill -2 °F
Dew Point -13 °F
Humidity 55%
Rainfall 0.00 in
Snow Depth Not available.
10:46 AM 2:42 PM
Waxing Gibbous, 92% visible
METAR PAFA 111353Z 00000KT 10SM FEW003 M29/M31 A3051 RMK AO2 SLP350 T12891311 VISNO NE $
Pressure 30.57 in
Visibility 10.0 miles
Clouds Few 300 ft
Windchill -2 °F
Dew Point -13 °F
Humidity 55%
Rainfall 0.00 in
Snow Depth Not available.
10:46 AM 2:42 PM
Waxing Gibbous, 92% visible
METAR PAFA 111353Z 00000KT 10SM FEW003 M29/M31 A3051 RMK AO2 SLP350 T12891311 VISNO NE $

10-Day Weather Forecast

Almanac

Astronomy

Dec. 11, 2016 Rise Set
Actual Time
Civil Twilight
Nautical Twilight
Astronomical Twilight
Moon
Length of Visible Light
Length of Day
Tomorrow will be .
, % of the Moon is Illuminated

Today's Extremes

State Highs State Lows

Community

WunderPhotos

Upload Photos

1,956,719 photos uploaded!

WunderBlog® & News

Nearby

Air Quality

  Air Quality AQ Index Pollutant
Not available.

Snow Depth

Station Depth Elevation

Earthquake Activity

City Distance Mag. Time & Date
Minimum magnitude displayed is 2.5.

Coastal Water Temperatures

Place Temperature

Stations

Nearby Weather Stations

Station Location Temp. Windchill Dew Point Humidity Wind Precip. Elev Updated Type
                   

Watches & Warnings

There are currently no watches in effect.